Terminal Aerodrome Forecast
Issued by NWS

Current Version | Previous Version | Text Only | Print | Product List | Glossary On
Versions: 1 2 3 4 5 6 7 8 9 10 11 12 13 14 15 16 17 18 19 20 21
000
FTUS43 KBIS 061734
TAFDIK
TAF
KDIK 061734Z 0618/0718 31005KT 6SM FU SCT050
     FM062200 36008KT 6SM FU SCT050
     FM070300 05006KT 3SM FU SKC
     FM070900 15006KT 4SM FU SKC
     FM071500 18012KT 6SM FU SKC=

USA.gov is the U.S. government's official web portal to all federal, state and local government web resources and services.